sensor_id;sensor_type;location;lat;lon;timestamp;P1;durP1;ratioP1;P2;durP2;ratioP2
38859;SDS011;24609;48.316;16.174;2022-12-24T00:01:04;3.33;;;1.02;;
38859;SDS011;24609;48.316;16.174;2022-12-24T00:03:31;1.27;;;0.98;;
38859;SDS011;24609;48.316;16.174;2022-12-24T00:05:57;2.60;;;1.08;;
38859;SDS011;24609;48.316;16.174;2022-12-24T00:08:23;2.05;;;1.05;;
38859;SDS011;24609;48.316;16.174;2022-12-24T00:10:52;1.75;;;1.13;;
38859;SDS011;24609;48.316;16.174;2022-12-24T00:15:44;1.17;;;0.90;;
38859;SDS011;24609;48.316;16.174;2022-12-24T00:18:10;8.35;;;1.20;;
38859;SDS011;24609;48.316;16.174;2022-12-24T00:20:35;1.38;;;0.80;;
38859;SDS011;24609;48.316;16.174;2022-12-24T00:23:01;1.65;;;1.23;;
38859;SDS011;24609;48.316;16.174;2022-12-24T00:25:27;1.65;;;0.98;;
38859;SDS011;24609;48.316;16.174;2022-12-24T00:27:52;2.47;;;0.80;;
38859;SDS011;24609;48.316;16.174;2022-12-24T00:30:18;1.95;;;0.80;;
38859;SDS011;24609;48.316;16.174;2022-12-24T00:32:44;2.47;;;0.98;;
38859;SDS011;24609;48.316;16.174;2022-12-24T00:35:09;1.35;;;0.93;;
38859;SDS011;24609;48.316;16.174;2022-12-24T00:37:35;0.95;;;0.70;;
38859;SDS011;24609;48.316;16.174;2022-12-24T00:40:00;1.58;;;0.80;;
38859;SDS011;24609;48.316;16.174;2022-12-24T00:42:26;0.68;;;0.50;;
38859;SDS011;24609;48.316;16.174;2022-12-24T00:44:52;1.17;;;0.57;;
38859;SDS011;24609;48.316;16.174;2022-12-24T00:47:17;0.98;;;0.60;;
38859;SDS011;24609;48.316;16.174;2022-12-24T00:49:43;0.55;;;0.40;;
38859;SDS011;24609;48.316;16.174;2022-12-24T00:52:09;0.70;;;0.50;;
38859;SDS011;24609;48.316;16.174;2022-12-24T00:54:34;1.75;;;0.55;;
38859;SDS011;24609;48.316;16.174;2022-12-24T00:57:00;0.30;;;0.30;;
38859;SDS011;24609;48.316;16.174;2022-12-24T00:59:26;0.30;;;0.30;;
38859;SDS011;24609;48.316;16.174;2022-12-24T01:01:51;0.70;;;0.50;;
38859;SDS011;24609;48.316;16.174;2022-12-24T01:04:17;1.33;;;0.63;;
38859;SDS011;24609;48.316;16.174;2022-12-24T01:07:01;1.33;;;0.63;;
38859;SDS011;24609;48.316;16.174;2022-12-24T01:09:27;0.40;;;0.40;;
38859;SDS011;24609;48.316;16.174;2022-12-24T01:11:53;0.55;;;0.40;;
38859;SDS011;24609;48.316;16.174;2022-12-24T01:14:18;0.60;;;0.47;;
38859;SDS011;24609;48.316;16.174;2022-12-24T01:16:44;1.08;;;0.70;;
38859;SDS011;24609;48.316;16.174;2022-12-24T01:19:10;0.40;;;0.40;;
38859;SDS011;24609;48.316;16.174;2022-12-24T01:21:35;0.70;;;0.40;;
38859;SDS011;24609;48.316;16.174;2022-12-24T01:24:01;0.65;;;0.40;;
38859;SDS011;24609;48.316;16.174;2022-12-24T01:26:27;0.40;;;0.40;;
38859;SDS011;24609;48.316;16.174;2022-12-24T01:28:53;0.47;;;0.45;;
38859;SDS011;24609;48.316;16.174;2022-12-24T01:31:18;2.13;;;0.40;;
38859;SDS011;24609;48.316;16.174;2022-12-24T01:33:44;0.75;;;0.30;;
38859;SDS011;24609;48.316;16.174;2022-12-24T01:36:12;0.30;;;0.30;;
38859;SDS011;24609;48.316;16.174;2022-12-24T01:38:38;0.57;;;0.50;;
38859;SDS011;24609;48.316;16.174;2022-12-24T01:41:04;1.20;;;0.57;;
38859;SDS011;24609;48.316;16.174;2022-12-24T01:43:49;0.52;;;0.52;;
38859;SDS011;24609;48.316;16.174;2022-12-24T01:46:19;0.50;;;0.50;;
38859;SDS011;24609;48.316;16.174;2022-12-24T01:48:54;0.32;;;0.32;;
38859;SDS011;24609;48.316;16.174;2022-12-24T01:51:38;0.40;;;0.40;;
38859;SDS011;24609;48.316;16.174;2022-12-24T01:54:12;0.95;;;0.60;;
38859;SDS011;24609;48.316;16.174;2022-12-24T01:56:49;1.05;;;0.60;;
38859;SDS011;24609;48.316;16.174;2022-12-24T01:59:19;0.50;;;0.45;;
38859;SDS011;24609;48.316;16.174;2022-12-24T02:01:46;0.98;;;0.60;;
38859;SDS011;24609;48.316;16.174;2022-12-24T02:07:00;2.17;;;0.63;;
38859;SDS011;24609;48.316;16.174;2022-12-24T02:09:26;0.20;;;0.20;;
38859;SDS011;24609;48.316;16.174;2022-12-24T02:11:52;0.77;;;0.52;;
38859;SDS011;24609;48.316;16.174;2022-12-24T02:14:21;0.30;;;0.30;;
38859;SDS011;24609;48.316;16.174;2022-12-24T02:19:50;0.75;;;0.47;;
38859;SDS011;24609;48.316;16.174;2022-12-24T02:30:53;0.95;;;0.38;;
38859;SDS011;24609;48.316;16.174;2022-12-24T02:38:31;0.55;;;0.30;;
38859;SDS011;24609;48.316;16.174;2022-12-24T02:41:17;0.30;;;0.30;;
38859;SDS011;24609;48.316;16.174;2022-12-24T02:43:50;1.95;;;0.50;;
38859;SDS011;24609;48.316;16.174;2022-12-24T02:46:19;0.20;;;0.20;;
38859;SDS011;24609;48.316;16.174;2022-12-24T02:48:48;0.20;;;0.20;;
38859;SDS011;24609;48.316;16.174;2022-12-24T02:51:14;0.93;;;0.40;;
38859;SDS011;24609;48.316;16.174;2022-12-24T02:53:45;0.20;;;0.20;;
38859;SDS011;24609;48.316;16.174;2022-12-24T02:56:22;0.70;;;0.35;;
38859;SDS011;24609;48.316;16.174;2022-12-24T02:58:58;0.40;;;0.40;;
38859;SDS011;24609;48.316;16.174;2022-12-24T03:01:29;0.30;;;0.30;;
38859;SDS011;24609;48.316;16.174;2022-12-24T03:04:17;1.73;;;0.50;;
38859;SDS011;24609;48.316;16.174;2022-12-24T03:09:49;0.55;;;0.45;;
38859;SDS011;24609;48.316;16.174;2022-12-24T03:12:21;0.30;;;0.30;;
38859;SDS011;24609;48.316;16.174;2022-12-24T03:14:52;1.60;;;0.60;;
38859;SDS011;24609;48.316;16.174;2022-12-24T03:17:19;1.08;;;0.50;;
38859;SDS011;24609;48.316;16.174;2022-12-24T03:19:45;0.73;;;0.52;;
38859;SDS011;24609;48.316;16.174;2022-12-24T03:22:12;0.90;;;0.65;;
38859;SDS011;24609;48.316;16.174;2022-12-24T03:24:38;1.00;;;0.77;;
38859;SDS011;24609;48.316;16.174;2022-12-24T03:27:07;0.63;;;0.63;;
38859;SDS011;24609;48.316;16.174;2022-12-24T03:32:00;1.10;;;0.60;;
38859;SDS011;24609;48.316;16.174;2022-12-24T03:34:27;0.45;;;0.45;;
38859;SDS011;24609;48.316;16.174;2022-12-24T03:36:53;1.13;;;0.80;;
38859;SDS011;24609;48.316;16.174;2022-12-24T03:39:19;3.30;;;0.80;;
38859;SDS011;24609;48.316;16.174;2022-12-24T03:41:46;1.40;;;1.00;;
38859;SDS011;24609;48.316;16.174;2022-12-24T03:44:12;1.08;;;0.68;;
38859;SDS011;24609;48.316;16.174;2022-12-24T03:46:38;1.38;;;0.70;;
38859;SDS011;24609;48.316;16.174;2022-12-24T03:49:03;0.55;;;0.55;;
38859;SDS011;24609;48.316;16.174;2022-12-24T03:51:29;2.53;;;0.90;;
38859;SDS011;24609;48.316;16.174;2022-12-24T03:53:57;3.63;;;0.60;;
38859;SDS011;24609;48.316;16.174;2022-12-24T03:56:23;1.20;;;0.68;;
38859;SDS011;24609;48.316;16.174;2022-12-24T03:58:49;2.00;;;1.38;;
38859;SDS011;24609;48.316;16.174;2022-12-24T04:01:15;1.20;;;0.90;;
38859;SDS011;24609;48.316;16.174;2022-12-24T04:03:41;0.80;;;0.70;;
38859;SDS011;24609;48.316;16.174;2022-12-24T04:06:11;0.75;;;0.60;;
38859;SDS011;24609;48.316;16.174;2022-12-24T04:08:39;1.45;;;1.00;;
38859;SDS011;24609;48.316;16.174;2022-12-24T04:11:09;1.13;;;0.90;;
38859;SDS011;24609;48.316;16.174;2022-12-24T04:13:36;1.70;;;1.02;;
38859;SDS011;24609;48.316;16.174;2022-12-24T04:16:05;0.77;;;0.77;;
38859;SDS011;24609;48.316;16.174;2022-12-24T04:18:33;0.88;;;0.77;;
38859;SDS011;24609;48.316;16.174;2022-12-24T04:20:59;2.50;;;0.85;;
38859;SDS011;24609;48.316;16.174;2022-12-24T04:23:25;0.73;;;0.60;;
38859;SDS011;24609;48.316;16.174;2022-12-24T04:25:53;0.70;;;0.70;;
38859;SDS011;24609;48.316;16.174;2022-12-24T04:28:19;0.75;;;0.63;;
38859;SDS011;24609;48.316;16.174;2022-12-24T04:30:45;0.55;;;0.55;;
38859;SDS011;24609;48.316;16.174;2022-12-24T04:33:10;0.88;;;0.65;;
38859;SDS011;24609;48.316;16.174;2022-12-24T04:35:39;0.82;;;0.60;;
38859;SDS011;24609;48.316;16.174;2022-12-24T04:38:06;1.00;;;0.65;;
38859;SDS011;24609;48.316;16.174;2022-12-24T04:40:32;0.82;;;0.60;;
38859;SDS011;24609;48.316;16.174;2022-12-24T04:42:58;1.30;;;0.50;;
38859;SDS011;24609;48.316;16.174;2022-12-24T04:45:24;0.68;;;0.50;;
38859;SDS011;24609;48.316;16.174;2022-12-24T04:47:50;0.68;;;0.60;;
38859;SDS011;24609;48.316;16.174;2022-12-24T04:50:15;0.43;;;0.40;;
38859;SDS011;24609;48.316;16.174;2022-12-24T04:52:41;1.27;;;0.70;;
38859;SDS011;24609;48.316;16.174;2022-12-24T04:55:07;1.00;;;0.50;;
38859;SDS011;24609;48.316;16.174;2022-12-24T04:57:33;2.60;;;0.60;;
38859;SDS011;24609;48.316;16.174;2022-12-24T05:00:00;0.70;;;0.50;;
38859;SDS011;24609;48.316;16.174;2022-12-24T05:02:26;0.52;;;0.45;;
38859;SDS011;24609;48.316;16.174;2022-12-24T05:04:51;0.40;;;0.40;;
38859;SDS011;24609;48.316;16.174;2022-12-24T05:07:17;0.65;;;0.43;;
38859;SDS011;24609;48.316;16.174;2022-12-24T05:09:43;1.17;;;0.40;;
38859;SDS011;24609;48.316;16.174;2022-12-24T05:12:09;0.77;;;0.55;;
38859;SDS011;24609;48.316;16.174;2022-12-24T05:14:34;2.50;;;0.60;;
38859;SDS011;24609;48.316;16.174;2022-12-24T05:17:00;0.68;;;0.50;;
38859;SDS011;24609;48.316;16.174;2022-12-24T05:19:25;3.92;;;0.70;;
38859;SDS011;24609;48.316;16.174;2022-12-24T05:21:51;0.25;;;0.25;;
38859;SDS011;24609;48.316;16.174;2022-12-24T05:24:35;0.55;;;0.50;;
38859;SDS011;24609;48.316;16.174;2022-12-24T05:27:20;1.88;;;0.60;;
38859;SDS011;24609;48.316;16.174;2022-12-24T05:29:46;0.82;;;0.75;;
38859;SDS011;24609;48.316;16.174;2022-12-24T05:32:11;0.57;;;0.32;;
38859;SDS011;24609;48.316;16.174;2022-12-24T05:34:37;0.95;;;0.47;;
38859;SDS011;24609;48.316;16.174;2022-12-24T05:37:03;2.15;;;0.73;;
38859;SDS011;24609;48.316;16.174;2022-12-24T05:39:28;0.93;;;0.70;;
38859;SDS011;24609;48.316;16.174;2022-12-24T05:41:54;0.35;;;0.32;;
38859;SDS011;24609;48.316;16.174;2022-12-24T05:44:20;3.00;;;0.80;;
38859;SDS011;24609;48.316;16.174;2022-12-24T05:46:45;0.60;;;0.55;;
38859;SDS011;24609;48.316;16.174;2022-12-24T05:49:11;1.45;;;0.60;;
38859;SDS011;24609;48.316;16.174;2022-12-24T05:51:37;0.88;;;0.50;;
38859;SDS011;24609;48.316;16.174;2022-12-24T05:54:04;0.43;;;0.43;;
38859;SDS011;24609;48.316;16.174;2022-12-24T05:56:30;1.45;;;0.50;;
38859;SDS011;24609;48.316;16.174;2022-12-24T05:58:56;0.77;;;0.63;;
38859;SDS011;24609;48.316;16.174;2022-12-24T06:01:22;2.90;;;0.40;;
38859;SDS011;24609;48.316;16.174;2022-12-24T06:03:49;1.75;;;1.10;;
38859;SDS011;24609;48.316;16.174;2022-12-24T06:06:16;2.05;;;0.75;;
38859;SDS011;24609;48.316;16.174;2022-12-24T06:08:48;1.08;;;0.40;;
38859;SDS011;24609;48.316;16.174;2022-12-24T06:11:15;0.90;;;0.70;;
38859;SDS011;24609;48.316;16.174;2022-12-24T06:13:42;1.25;;;0.80;;
38859;SDS011;24609;48.316;16.174;2022-12-24T06:16:09;0.20;;;0.20;;
38859;SDS011;24609;48.316;16.174;2022-12-24T06:18:37;0.70;;;0.60;;
38859;SDS011;24609;48.316;16.174;2022-12-24T06:21:03;1.05;;;0.63;;
38859;SDS011;24609;48.316;16.174;2022-12-24T06:23:30;5.20;;;0.57;;
38859;SDS011;24609;48.316;16.174;2022-12-24T06:25:57;2.10;;;0.45;;
38859;SDS011;24609;48.316;16.174;2022-12-24T06:28:27;0.50;;;0.50;;
38859;SDS011;24609;48.316;16.174;2022-12-24T06:30:54;0.57;;;0.40;;
38859;SDS011;24609;48.316;16.174;2022-12-24T06:33:20;0.95;;;0.63;;
38859;SDS011;24609;48.316;16.174;2022-12-24T06:35:45;6.43;;;0.70;;
38859;SDS011;24609;48.316;16.174;2022-12-24T06:38:12;1.05;;;0.45;;
38859;SDS011;24609;48.316;16.174;2022-12-24T06:40:39;0.50;;;0.50;;
38859;SDS011;24609;48.316;16.174;2022-12-24T06:43:06;0.80;;;0.55;;
38859;SDS011;24609;48.316;16.174;2022-12-24T06:45:31;2.85;;;0.52;;
38859;SDS011;24609;48.316;16.174;2022-12-24T06:47:57;0.93;;;0.63;;
38859;SDS011;24609;48.316;16.174;2022-12-24T06:50:24;1.75;;;0.50;;
38859;SDS011;24609;48.316;16.174;2022-12-24T06:52:50;1.20;;;0.82;;
38859;SDS011;24609;48.316;16.174;2022-12-24T06:55:15;0.40;;;0.40;;
38859;SDS011;24609;48.316;16.174;2022-12-24T06:57:41;1.02;;;0.70;;
38859;SDS011;24609;48.316;16.174;2022-12-24T07:00:08;0.75;;;0.50;;
38859;SDS011;24609;48.316;16.174;2022-12-24T07:02:37;3.00;;;0.98;;
38859;SDS011;24609;48.316;16.174;2022-12-24T07:05:08;0.93;;;0.70;;
38859;SDS011;24609;48.316;16.174;2022-12-24T07:07:38;0.60;;;0.60;;
38859;SDS011;24609;48.316;16.174;2022-12-24T07:10:06;1.23;;;0.70;;
38859;SDS011;24609;48.316;16.174;2022-12-24T07:12:34;1.90;;;0.85;;
38859;SDS011;24609;48.316;16.174;2022-12-24T07:15:00;1.85;;;0.88;;
38859;SDS011;24609;48.316;16.174;2022-12-24T07:17:28;3.03;;;0.67;;
38859;SDS011;24609;48.316;16.174;2022-12-24T07:19:54;1.75;;;0.45;;
38859;SDS011;24609;48.316;16.174;2022-12-24T07:22:19;0.65;;;0.65;;
38859;SDS011;24609;48.316;16.174;2022-12-24T07:24:45;1.58;;;0.52;;
38859;SDS011;24609;48.316;16.174;2022-12-24T07:27:11;1.40;;;0.60;;
38859;SDS011;24609;48.316;16.174;2022-12-24T07:29:37;3.30;;;1.67;;
38859;SDS011;24609;48.316;16.174;2022-12-24T07:32:02;4.07;;;0.70;;
38859;SDS011;24609;48.316;16.174;2022-12-24T07:34:28;1.55;;;0.75;;
38859;SDS011;24609;48.316;16.174;2022-12-24T07:36:54;1.40;;;0.60;;
38859;SDS011;24609;48.316;16.174;2022-12-24T07:39:19;0.77;;;0.50;;
38859;SDS011;24609;48.316;16.174;2022-12-24T07:41:45;1.45;;;0.57;;
38859;SDS011;24609;48.316;16.174;2022-12-24T07:44:13;0.75;;;0.63;;
38859;SDS011;24609;48.316;16.174;2022-12-24T07:46:40;2.40;;;0.75;;
38859;SDS011;24609;48.316;16.174;2022-12-24T07:49:06;2.95;;;1.50;;
38859;SDS011;24609;48.316;16.174;2022-12-24T07:51:32;2.83;;;1.00;;
38859;SDS011;24609;48.316;16.174;2022-12-24T07:53:57;1.55;;;0.70;;
38859;SDS011;24609;48.316;16.174;2022-12-24T07:56:23;2.90;;;1.10;;
38859;SDS011;24609;48.316;16.174;2022-12-24T07:58:50;1.20;;;0.60;;
38859;SDS011;24609;48.316;16.174;2022-12-24T08:01:16;0.52;;;0.52;;
38859;SDS011;24609;48.316;16.174;2022-12-24T08:03:42;2.05;;;0.77;;
38859;SDS011;24609;48.316;16.174;2022-12-24T08:06:08;4.35;;;0.90;;
38859;SDS011;24609;48.316;16.174;2022-12-24T08:08:35;1.33;;;0.70;;
38859;SDS011;24609;48.316;16.174;2022-12-24T08:11:01;0.77;;;0.63;;
38859;SDS011;24609;48.316;16.174;2022-12-24T08:13:31;0.95;;;0.77;;
38859;SDS011;24609;48.316;16.174;2022-12-24T08:15:57;1.33;;;0.50;;
38859;SDS011;24609;48.316;16.174;2022-12-24T08:18:23;1.35;;;1.00;;
38859;SDS011;24609;48.316;16.174;2022-12-24T08:20:49;3.22;;;0.75;;
38859;SDS011;24609;48.316;16.174;2022-12-24T08:23:15;1.08;;;0.80;;
38859;SDS011;24609;48.316;16.174;2022-12-24T08:25:42;0.57;;;0.57;;
38859;SDS011;24609;48.316;16.174;2022-12-24T08:28:09;1.10;;;0.80;;
38859;SDS011;24609;48.316;16.174;2022-12-24T08:30:35;2.20;;;0.75;;
38859;SDS011;24609;48.316;16.174;2022-12-24T08:33:01;4.50;;;0.93;;
38859;SDS011;24609;48.316;16.174;2022-12-24T08:35:26;1.95;;;1.13;;
38859;SDS011;24609;48.316;16.174;2022-12-24T08:37:52;0.70;;;0.70;;
38859;SDS011;24609;48.316;16.174;2022-12-24T08:40:18;2.90;;;1.92;;
38859;SDS011;24609;48.316;16.174;2022-12-24T08:42:43;3.80;;;2.90;;
38859;SDS011;24609;48.316;16.174;2022-12-24T08:45:09;4.88;;;2.28;;
38859;SDS011;24609;48.316;16.174;2022-12-24T08:47:36;1.88;;;1.38;;
38859;SDS011;24609;48.316;16.174;2022-12-24T08:50:03;3.33;;;0.90;;
38859;SDS011;24609;48.316;16.174;2022-12-24T08:52:29;1.58;;;0.77;;
38859;SDS011;24609;48.316;16.174;2022-12-24T08:54:55;2.03;;;0.90;;
38859;SDS011;24609;48.316;16.174;2022-12-24T08:57:21;3.13;;;1.00;;
38859;SDS011;24609;48.316;16.174;2022-12-24T08:59:47;4.93;;;1.13;;
38859;SDS011;24609;48.316;16.174;2022-12-24T09:02:12;1.17;;;0.60;;
38859;SDS011;24609;48.316;16.174;2022-12-24T09:04:38;1.33;;;0.95;;
38859;SDS011;24609;48.316;16.174;2022-12-24T09:07:04;1.67;;;0.80;;
38859;SDS011;24609;48.316;16.174;2022-12-24T09:09:31;2.03;;;0.70;;
38859;SDS011;24609;48.316;16.174;2022-12-24T09:11:56;2.20;;;1.00;;
38859;SDS011;24609;48.316;16.174;2022-12-24T09:14:22;1.83;;;1.15;;
38859;SDS011;24609;48.316;16.174;2022-12-24T09:16:47;1.63;;;0.63;;
38859;SDS011;24609;48.316;16.174;2022-12-24T09:19:13;0.95;;;0.75;;
38859;SDS011;24609;48.316;16.174;2022-12-24T09:21:39;2.20;;;0.90;;
38859;SDS011;24609;48.316;16.174;2022-12-24T09:24:04;2.80;;;0.95;;
38859;SDS011;24609;48.316;16.174;2022-12-24T09:26:30;4.63;;;0.90;;
38859;SDS011;24609;48.316;16.174;2022-12-24T09:28:56;2.03;;;1.10;;
38859;SDS011;24609;48.316;16.174;2022-12-24T09:31:24;3.10;;;1.08;;
38859;SDS011;24609;48.316;16.174;2022-12-24T09:33:50;1.55;;;0.88;;
38859;SDS011;24609;48.316;16.174;2022-12-24T09:36:17;1.52;;;0.98;;
38859;SDS011;24609;48.316;16.174;2022-12-24T09:38:43;2.58;;;0.93;;
38859;SDS011;24609;48.316;16.174;2022-12-24T09:49:45;1.63;;;0.82;;
38859;SDS011;24609;48.316;16.174;2022-12-24T09:52:15;1.85;;;0.90;;
38859;SDS011;24609;48.316;16.174;2022-12-24T09:57:39;3.33;;;1.15;;
38859;SDS011;24609;48.316;16.174;2022-12-24T10:00:15;2.13;;;0.90;;
38859;SDS011;24609;48.316;16.174;2022-12-24T10:03:08;2.60;;;0.88;;
38859;SDS011;24609;48.316;16.174;2022-12-24T10:08:49;1.83;;;0.75;;
38859;SDS011;24609;48.316;16.174;2022-12-24T10:11:55;1.23;;;0.77;;
38859;SDS011;24609;48.316;16.174;2022-12-24T10:19:51;2.58;;;0.85;;
38859;SDS011;24609;48.316;16.174;2022-12-24T10:25:08;1.70;;;1.10;;
38859;SDS011;24609;48.316;16.174;2022-12-24T10:28:17;4.38;;;1.10;;
38859;SDS011;24609;48.316;16.174;2022-12-24T10:30:48;3.08;;;0.95;;
38859;SDS011;24609;48.316;16.174;2022-12-24T10:33:20;3.17;;;1.00;;
38859;SDS011;24609;48.316;16.174;2022-12-24T10:35:55;2.05;;;0.88;;
38859;SDS011;24609;48.316;16.174;2022-12-24T10:38:22;4.15;;;1.05;;
38859;SDS011;24609;48.316;16.174;2022-12-24T10:40:52;2.03;;;1.10;;
38859;SDS011;24609;48.316;16.174;2022-12-24T10:43:21;2.53;;;1.30;;
38859;SDS011;24609;48.316;16.174;2022-12-24T10:45:50;2.92;;;1.52;;
38859;SDS011;24609;48.316;16.174;2022-12-24T10:51:33;1.77;;;1.00;;
38859;SDS011;24609;48.316;16.174;2022-12-24T10:54:06;3.08;;;1.10;;
38859;SDS011;24609;48.316;16.174;2022-12-24T10:56:39;3.47;;;0.98;;
38859;SDS011;24609;48.316;16.174;2022-12-24T10:59:24;2.72;;;1.10;;
38859;SDS011;24609;48.316;16.174;2022-12-24T11:01:50;1.58;;;0.98;;
38859;SDS011;24609;48.316;16.174;2022-12-24T11:04:17;2.05;;;1.20;;
38859;SDS011;24609;48.316;16.174;2022-12-24T11:07:02;3.42;;;1.40;;
38859;SDS011;24609;48.316;16.174;2022-12-24T11:09:34;1.13;;;0.98;;
38859;SDS011;24609;48.316;16.174;2022-12-24T11:12:04;3.83;;;1.00;;
38859;SDS011;24609;48.316;16.174;2022-12-24T11:14:42;4.65;;;1.38;;
38859;SDS011;24609;48.316;16.174;2022-12-24T11:17:08;3.70;;;1.30;;
38859;SDS011;24609;48.316;16.174;2022-12-24T11:19:46;4.47;;;1.38;;
38859;SDS011;24609;48.316;16.174;2022-12-24T11:22:26;3.00;;;1.13;;
38859;SDS011;24609;48.316;16.174;2022-12-24T11:25:02;2.53;;;1.52;;
38859;SDS011;24609;48.316;16.174;2022-12-24T11:32:41;4.97;;;1.50;;
38859;SDS011;24609;48.316;16.174;2022-12-24T11:35:27;3.75;;;1.20;;
38859;SDS011;24609;48.316;16.174;2022-12-24T11:40:24;4.60;;;1.17;;
38859;SDS011;24609;48.316;16.174;2022-12-24T11:42:57;3.85;;;1.25;;
38859;SDS011;24609;48.316;16.174;2022-12-24T11:45:25;3.67;;;1.60;;
38859;SDS011;24609;48.316;16.174;2022-12-24T11:47:53;3.58;;;1.30;;
38859;SDS011;24609;48.316;16.174;2022-12-24T11:50:21;2.80;;;1.60;;
38859;SDS011;24609;48.316;16.174;2022-12-24T11:53:16;5.13;;;1.90;;
38859;SDS011;24609;48.316;16.174;2022-12-24T11:55:48;3.65;;;1.65;;
38859;SDS011;24609;48.316;16.174;2022-12-24T12:00:49;2.13;;;1.20;;
38859;SDS011;24609;48.316;16.174;2022-12-24T12:03:26;2.05;;;1.52;;
38859;SDS011;24609;48.316;16.174;2022-12-24T12:06:00;4.40;;;1.10;;
38859;SDS011;24609;48.316;16.174;2022-12-24T12:08:31;3.58;;;1.20;;
38859;SDS011;24609;48.316;16.174;2022-12-24T12:11:10;1.40;;;0.85;;
38859;SDS011;24609;48.316;16.174;2022-12-24T12:13:38;4.25;;;1.30;;
38859;SDS011;24609;48.316;16.174;2022-12-24T12:18:51;2.40;;;1.08;;
38859;SDS011;24609;48.316;16.174;2022-12-24T12:21:24;2.70;;;1.33;;
38859;SDS011;24609;48.316;16.174;2022-12-24T12:23:57;2.65;;;0.80;;
38859;SDS011;24609;48.316;16.174;2022-12-24T12:26:30;0.90;;;0.68;;
38859;SDS011;24609;48.316;16.174;2022-12-24T12:29:03;1.92;;;1.08;;
38859;SDS011;24609;48.316;16.174;2022-12-24T12:31:50;0.90;;;0.60;;
38859;SDS011;24609;48.316;16.174;2022-12-24T12:34:31;1.25;;;0.68;;
38859;SDS011;24609;48.316;16.174;2022-12-24T12:37:08;3.15;;;0.82;;
38859;SDS011;24609;48.316;16.174;2022-12-24T12:39:54;1.88;;;0.88;;
38859;SDS011;24609;48.316;16.174;2022-12-24T12:52:57;2.93;;;1.17;;
38859;SDS011;24609;48.316;16.174;2022-12-24T12:58:24;2.15;;;0.75;;
38859;SDS011;24609;48.316;16.174;2022-12-24T13:00:59;3.10;;;0.73;;
38859;SDS011;24609;48.316;16.174;2022-12-24T13:09:06;6.05;;;0.80;;
38859;SDS011;24609;48.316;16.174;2022-12-24T13:14:45;1.30;;;0.75;;
38859;SDS011;24609;48.316;16.174;2022-12-24T13:20:49;1.48;;;1.08;;
38859;SDS011;24609;48.316;16.174;2022-12-24T13:23:17;1.30;;;0.47;;
38859;SDS011;24609;48.316;16.174;2022-12-24T13:28:16;5.53;;;0.77;;
38859;SDS011;24609;48.316;16.174;2022-12-24T13:33:56;1.20;;;0.70;;
38859;SDS011;24609;48.316;16.174;2022-12-24T13:36:23;0.73;;;0.60;;
38859;SDS011;24609;48.316;16.174;2022-12-24T13:38:53;1.23;;;0.85;;
38859;SDS011;24609;48.316;16.174;2022-12-24T13:49:54;3.03;;;0.75;;
38859;SDS011;24609;48.316;16.174;2022-12-24T13:54:37;0.65;;;0.47;;
38859;SDS011;24609;48.316;16.174;2022-12-24T14:02:55;2.58;;;0.82;;
38859;SDS011;24609;48.316;16.174;2022-12-24T14:08:05;2.50;;;1.05;;
38859;SDS011;24609;48.316;16.174;2022-12-24T14:10:36;0.60;;;0.50;;
38859;SDS011;24609;48.316;16.174;2022-12-24T14:13:05;1.00;;;0.95;;
38859;SDS011;24609;48.316;16.174;2022-12-24T14:15:57;1.30;;;0.93;;
38859;SDS011;24609;48.316;16.174;2022-12-24T14:18:26;1.13;;;0.63;;
38859;SDS011;24609;48.316;16.174;2022-12-24T14:20:54;1.30;;;0.95;;
38859;SDS011;24609;48.316;16.174;2022-12-24T14:23:45;2.80;;;0.73;;
38859;SDS011;24609;48.316;16.174;2022-12-24T14:28:55;2.25;;;0.80;;
38859;SDS011;24609;48.316;16.174;2022-12-24T14:31:27;2.42;;;0.82;;
38859;SDS011;24609;48.316;16.174;2022-12-24T14:34:06;1.35;;;0.80;;
38859;SDS011;24609;48.316;16.174;2022-12-24T14:36:36;2.50;;;0.90;;
38859;SDS011;24609;48.316;16.174;2022-12-24T14:39:04;0.93;;;0.80;;
38859;SDS011;24609;48.316;16.174;2022-12-24T14:41:36;2.70;;;1.02;;
38859;SDS011;24609;48.316;16.174;2022-12-24T14:49:22;1.05;;;0.73;;
38859;SDS011;24609;48.316;16.174;2022-12-24T14:54:42;0.95;;;0.75;;
38859;SDS011;24609;48.316;16.174;2022-12-24T14:59:45;2.40;;;1.02;;
38859;SDS011;24609;48.316;16.174;2022-12-24T15:05:10;1.80;;;1.10;;
38859;SDS011;24609;48.316;16.174;2022-12-24T15:07:56;1.08;;;0.85;;
38859;SDS011;24609;48.316;16.174;2022-12-24T15:12:54;1.57;;;1.00;;
38859;SDS011;24609;48.316;16.174;2022-12-24T15:15:21;2.83;;;0.80;;
38859;SDS011;24609;48.316;16.174;2022-12-24T15:17:47;3.70;;;1.40;;
38859;SDS011;24609;48.316;16.174;2022-12-24T15:20:15;1.35;;;0.70;;
38859;SDS011;24609;48.316;16.174;2022-12-24T15:22:43;1.15;;;1.05;;
38859;SDS011;24609;48.316;16.174;2022-12-24T15:25:22;1.13;;;0.82;;
38859;SDS011;24609;48.316;16.174;2022-12-24T15:27:55;0.80;;;0.80;;
38859;SDS011;24609;48.316;16.174;2022-12-24T15:30:23;1.23;;;0.98;;
38859;SDS011;24609;48.316;16.174;2022-12-24T15:32:54;1.45;;;1.05;;
38859;SDS011;24609;48.316;16.174;2022-12-24T15:38:33;3.72;;;1.40;;
38859;SDS011;24609;48.316;16.174;2022-12-24T15:41:03;2.85;;;1.30;;
38859;SDS011;24609;48.316;16.174;2022-12-24T15:43:46;5.50;;;1.35;;
38859;SDS011;24609;48.316;16.174;2022-12-24T15:46:22;2.90;;;1.23;;
38859;SDS011;24609;48.316;16.174;2022-12-24T15:48:50;6.75;;;1.60;;
38859;SDS011;24609;48.316;16.174;2022-12-24T15:51:34;0.90;;;0.90;;
38859;SDS011;24609;48.316;16.174;2022-12-24T15:54:05;1.50;;;0.95;;
38859;SDS011;24609;48.316;16.174;2022-12-24T15:56:42;1.10;;;0.98;;
38859;SDS011;24609;48.316;16.174;2022-12-24T16:10:36;3.50;;;1.10;;
38859;SDS011;24609;48.316;16.174;2022-12-24T16:13:37;1.85;;;1.10;;
38859;SDS011;24609;48.316;16.174;2022-12-24T16:16:06;10.13;;;1.98;;
38859;SDS011;24609;48.316;16.174;2022-12-24T16:18:39;5.32;;;1.30;;
38859;SDS011;24609;48.316;16.174;2022-12-24T16:21:18;0.98;;;0.52;;
38859;SDS011;24609;48.316;16.174;2022-12-24T16:23:53;1.65;;;1.17;;
38859;SDS011;24609;48.316;16.174;2022-12-24T16:26:21;2.65;;;1.63;;
38859;SDS011;24609;48.316;16.174;2022-12-24T16:28:47;3.28;;;1.33;;
38859;SDS011;24609;48.316;16.174;2022-12-24T16:31:27;3.90;;;1.52;;
38859;SDS011;24609;48.316;16.174;2022-12-24T16:33:56;2.92;;;1.42;;
38859;SDS011;24609;48.316;16.174;2022-12-24T16:36:23;3.33;;;1.40;;
38859;SDS011;24609;48.316;16.174;2022-12-24T16:38:49;4.30;;;1.50;;
38859;SDS011;24609;48.316;16.174;2022-12-24T16:41:50;7.90;;;2.10;;
38859;SDS011;24609;48.316;16.174;2022-12-24T16:44:35;5.40;;;1.67;;
38859;SDS011;24609;48.316;16.174;2022-12-24T16:47:01;2.00;;;1.10;;
38859;SDS011;24609;48.316;16.174;2022-12-24T16:49:29;3.22;;;1.83;;
38859;SDS011;24609;48.316;16.174;2022-12-24T16:51:55;2.33;;;1.13;;
38859;SDS011;24609;48.316;16.174;2022-12-24T16:54:21;1.88;;;1.10;;
38859;SDS011;24609;48.316;16.174;2022-12-24T16:56:47;2.97;;;1.40;;
38859;SDS011;24609;48.316;16.174;2022-12-24T16:59:16;4.70;;;1.30;;
38859;SDS011;24609;48.316;16.174;2022-12-24T17:01:43;1.52;;;1.02;;
38859;SDS011;24609;48.316;16.174;2022-12-24T17:04:09;4.05;;;1.50;;
38859;SDS011;24609;48.316;16.174;2022-12-24T17:06:35;2.05;;;1.40;;
38859;SDS011;24609;48.316;16.174;2022-12-24T17:09:00;5.50;;;1.63;;
38859;SDS011;24609;48.316;16.174;2022-12-24T17:11:26;3.22;;;1.23;;
38859;SDS011;24609;48.316;16.174;2022-12-24T17:13:52;4.53;;;1.30;;
38859;SDS011;24609;48.316;16.174;2022-12-24T17:16:17;1.48;;;0.98;;